sensor_id;sensor_type;location;lat;lon;timestamp;P1;durP1;ratioP1;P2;durP2;ratioP2
43646;SDS011;56152;49.996;18.980;2023-12-14T00:01:01;90.32;;;41.42;;
43646;SDS011;56152;49.996;18.980;2023-12-14T00:06:03;150.45;;;58.28;;
43646;SDS011;56152;49.996;18.980;2023-12-14T00:11:05;100.23;;;44.53;;
43646;SDS011;56152;49.996;18.980;2023-12-14T00:16:09;98.15;;;39.67;;
43646;SDS011;56152;49.996;18.980;2023-12-14T00:21:11;133.33;;;54.90;;
43646;SDS011;56152;49.996;18.980;2023-12-14T00:26:13;93.07;;;43.33;;
43646;SDS011;56152;49.996;18.980;2023-12-14T00:31:18;86.27;;;40.87;;
43646;SDS011;56152;49.996;18.980;2023-12-14T00:36:20;76.05;;;35.35;;
43646;SDS011;56152;49.996;18.980;2023-12-14T00:41:22;62.92;;;32.45;;
43646;SDS011;56152;49.996;18.980;2023-12-14T00:46:26;70.55;;;30.50;;
43646;SDS011;56152;49.996;18.980;2023-12-14T00:51:28;82.40;;;36.70;;
43646;SDS011;56152;49.996;18.980;2023-12-14T00:56:30;91.28;;;39.83;;
43646;SDS011;56152;49.996;18.980;2023-12-14T01:01:33;73.22;;;37.90;;
43646;SDS011;56152;49.996;18.980;2023-12-14T01:06:35;112.30;;;44.80;;
43646;SDS011;56152;49.996;18.980;2023-12-14T01:11:37;78.65;;;34.78;;
43646;SDS011;56152;49.996;18.980;2023-12-14T01:16:40;81.10;;;33.42;;
43646;SDS011;56152;49.996;18.980;2023-12-14T01:21:42;109.38;;;40.95;;
43646;SDS011;56152;49.996;18.980;2023-12-14T01:26:44;95.70;;;36.88;;
43646;SDS011;56152;49.996;18.980;2023-12-14T01:31:48;93.32;;;38.10;;
43646;SDS011;56152;49.996;18.980;2023-12-14T01:36:51;81.05;;;30.77;;
43646;SDS011;56152;49.996;18.980;2023-12-14T01:41:53;95.78;;;39.63;;
43646;SDS011;56152;49.996;18.980;2023-12-14T01:46:57;105.65;;;42.63;;
43646;SDS011;56152;49.996;18.980;2023-12-14T01:51:58;97.60;;;36.80;;
43646;SDS011;56152;49.996;18.980;2023-12-14T01:57:00;66.32;;;26.60;;
43646;SDS011;56152;49.996;18.980;2023-12-14T02:02:06;82.95;;;32.58;;
43646;SDS011;56152;49.996;18.980;2023-12-14T02:07:08;92.25;;;30.73;;
43646;SDS011;56152;49.996;18.980;2023-12-14T02:12:10;93.50;;;34.60;;
43646;SDS011;56152;49.996;18.980;2023-12-14T02:17:14;190.20;;;61.25;;
43646;SDS011;56152;49.996;18.980;2023-12-14T02:22:16;110.82;;;39.38;;
43646;SDS011;56152;49.996;18.980;2023-12-14T02:27:20;113.03;;;39.38;;
43646;SDS011;56152;49.996;18.980;2023-12-14T02:32:23;95.28;;;33.25;;
43646;SDS011;56152;49.996;18.980;2023-12-14T02:37:24;111.80;;;38.15;;
43646;SDS011;56152;49.996;18.980;2023-12-14T02:42:31;97.05;;;32.70;;
43646;SDS011;56152;49.996;18.980;2023-12-14T02:47:33;123.00;;;36.78;;
43646;SDS011;56152;49.996;18.980;2023-12-14T02:52:37;111.53;;;35.45;;
43646;SDS011;56152;49.996;18.980;2023-12-14T02:57:44;112.20;;;34.67;;
43646;SDS011;56152;49.996;18.980;2023-12-14T03:02:46;76.65;;;27.27;;
43646;SDS011;56152;49.996;18.980;2023-12-14T03:07:48;158.02;;;44.92;;
43646;SDS011;56152;49.996;18.980;2023-12-14T03:12:51;100.72;;;32.53;;
43646;SDS011;56152;49.996;18.980;2023-12-14T03:17:53;120.30;;;39.83;;
43646;SDS011;56152;49.996;18.980;2023-12-14T03:22:55;141.13;;;42.83;;
43646;SDS011;56152;49.996;18.980;2023-12-14T03:27:58;103.13;;;35.35;;
43646;SDS011;56152;49.996;18.980;2023-12-14T03:33:00;146.23;;;40.20;;
43646;SDS011;56152;49.996;18.980;2023-12-14T03:38:02;98.18;;;33.45;;
43646;SDS011;56152;49.996;18.980;2023-12-14T03:43:07;102.93;;;33.75;;
43646;SDS011;56152;49.996;18.980;2023-12-14T03:48:12;153.52;;;42.20;;
43646;SDS011;56152;49.996;18.980;2023-12-14T03:53:14;92.73;;;31.50;;
43646;SDS011;56152;49.996;18.980;2023-12-14T03:58:17;115.82;;;34.55;;
43646;SDS011;56152;49.996;18.980;2023-12-14T04:03:19;112.03;;;35.28;;
43646;SDS011;56152;49.996;18.980;2023-12-14T04:08:21;81.40;;;27.92;;
43646;SDS011;56152;49.996;18.980;2023-12-14T04:13:27;98.83;;;34.77;;
43646;SDS011;56152;49.996;18.980;2023-12-14T04:18:29;67.35;;;25.58;;
43646;SDS011;56152;49.996;18.980;2023-12-14T04:23:32;79.15;;;29.58;;
43646;SDS011;56152;49.996;18.980;2023-12-14T04:28:35;75.13;;;27.07;;
43646;SDS011;56152;49.996;18.980;2023-12-14T04:33:37;70.00;;;26.45;;
43646;SDS011;56152;49.996;18.980;2023-12-14T04:38:40;90.60;;;40.30;;
43646;SDS011;56152;49.996;18.980;2023-12-14T04:43:44;88.13;;;35.90;;
43646;SDS011;56152;49.996;18.980;2023-12-14T04:48:46;75.83;;;31.40;;
43646;SDS011;56152;49.996;18.980;2023-12-14T04:53:48;78.20;;;27.50;;
43646;SDS011;56152;49.996;18.980;2023-12-14T04:58:51;79.03;;;30.02;;
43646;SDS011;56152;49.996;18.980;2023-12-14T05:03:54;66.20;;;25.65;;
43646;SDS011;56152;49.996;18.980;2023-12-14T05:08:57;74.72;;;30.52;;
43646;SDS011;56152;49.996;18.980;2023-12-14T05:14:04;69.65;;;27.20;;
43646;SDS011;56152;49.996;18.980;2023-12-14T05:19:06;75.55;;;30.13;;
43646;SDS011;56152;49.996;18.980;2023-12-14T05:24:09;82.23;;;29.87;;
43646;SDS011;56152;49.996;18.980;2023-12-14T05:29:12;151.88;;;53.55;;
43646;SDS011;56152;49.996;18.980;2023-12-14T05:34:14;100.57;;;37.00;;
43646;SDS011;56152;49.996;18.980;2023-12-14T05:39:17;179.57;;;76.93;;
43646;SDS011;56152;49.996;18.980;2023-12-14T05:44:20;274.40;;;113.85;;
43646;SDS011;56152;49.996;18.980;2023-12-14T05:49:22;368.05;;;163.18;;
43646;SDS011;56152;49.996;18.980;2023-12-14T05:54:25;291.98;;;95.72;;
43646;SDS011;56152;49.996;18.980;2023-12-14T05:59:28;208.88;;;76.30;;
43646;SDS011;56152;49.996;18.980;2023-12-14T06:04:30;242.68;;;68.90;;
43646;SDS011;56152;49.996;18.980;2023-12-14T06:09:32;191.45;;;62.22;;
43646;SDS011;56152;49.996;18.980;2023-12-14T06:14:36;212.85;;;66.70;;
43646;SDS011;56152;49.996;18.980;2023-12-14T06:19:38;129.93;;;46.88;;
43646;SDS011;56152;49.996;18.980;2023-12-14T06:24:40;126.47;;;46.30;;
43646;SDS011;56152;49.996;18.980;2023-12-14T06:29:43;97.03;;;39.53;;
43646;SDS011;56152;49.996;18.980;2023-12-14T06:34:48;91.20;;;36.15;;
43646;SDS011;56152;49.996;18.980;2023-12-14T06:39:50;87.20;;;37.47;;
43646;SDS011;56152;49.996;18.980;2023-12-14T06:44:56;86.28;;;37.35;;
43646;SDS011;56152;49.996;18.980;2023-12-14T06:49:58;74.65;;;34.60;;
43646;SDS011;56152;49.996;18.980;2023-12-14T06:54:59;82.28;;;33.92;;
43646;SDS011;56152;49.996;18.980;2023-12-14T07:00:03;61.30;;;25.15;;
43646;SDS011;56152;49.996;18.980;2023-12-14T07:05:05;103.75;;;39.83;;
43646;SDS011;56152;49.996;18.980;2023-12-14T07:10:08;114.82;;;45.50;;
43646;SDS011;56152;49.996;18.980;2023-12-14T07:15:11;81.47;;;33.60;;
43646;SDS011;56152;49.996;18.980;2023-12-14T07:20:16;106.18;;;39.70;;
43646;SDS011;56152;49.996;18.980;2023-12-14T07:25:18;133.97;;;52.00;;
43646;SDS011;56152;49.996;18.980;2023-12-14T07:30:25;124.45;;;47.72;;
43646;SDS011;56152;49.996;18.980;2023-12-14T07:35:27;124.53;;;49.40;;
43646;SDS011;56152;49.996;18.980;2023-12-14T07:40:29;93.68;;;41.85;;
43646;SDS011;56152;49.996;18.980;2023-12-14T07:45:32;112.07;;;50.70;;
43646;SDS011;56152;49.996;18.980;2023-12-14T07:50:35;79.53;;;33.38;;
43646;SDS011;56152;49.996;18.980;2023-12-14T07:55:38;90.83;;;35.17;;
43646;SDS011;56152;49.996;18.980;2023-12-14T08:00:43;105.47;;;37.28;;
43646;SDS011;56152;49.996;18.980;2023-12-14T08:05:48;92.78;;;36.83;;
43646;SDS011;56152;49.996;18.980;2023-12-14T08:10:51;89.70;;;33.10;;
43646;SDS011;56152;49.996;18.980;2023-12-14T08:15:58;75.40;;;30.27;;
43646;SDS011;56152;49.996;18.980;2023-12-14T08:21:00;69.32;;;27.38;;
43646;SDS011;56152;49.996;18.980;2023-12-14T08:26:06;73.10;;;30.85;;
43646;SDS011;56152;49.996;18.980;2023-12-14T08:31:09;85.07;;;31.65;;
43646;SDS011;56152;49.996;18.980;2023-12-14T08:36:14;77.82;;;30.77;;
43646;SDS011;56152;49.996;18.980;2023-12-14T08:41:17;80.88;;;31.00;;
43646;SDS011;56152;49.996;18.980;2023-12-14T08:46:20;78.32;;;32.88;;
43646;SDS011;56152;49.996;18.980;2023-12-14T08:51:22;81.47;;;36.35;;
43646;SDS011;56152;49.996;18.980;2023-12-14T08:56:27;64.28;;;27.35;;
43646;SDS011;56152;49.996;18.980;2023-12-14T09:01:31;71.40;;;30.33;;
43646;SDS011;56152;49.996;18.980;2023-12-14T09:06:33;97.83;;;38.47;;
43646;SDS011;56152;49.996;18.980;2023-12-14T09:11:36;96.80;;;37.50;;
43646;SDS011;56152;49.996;18.980;2023-12-14T09:16:39;117.35;;;39.28;;
43646;SDS011;56152;49.996;18.980;2023-12-14T09:21:42;97.40;;;31.40;;
43646;SDS011;56152;49.996;18.980;2023-12-14T09:26:44;101.53;;;32.70;;
43646;SDS011;56152;49.996;18.980;2023-12-14T09:31:48;134.25;;;43.83;;
43646;SDS011;56152;49.996;18.980;2023-12-14T09:36:50;119.43;;;39.35;;
43646;SDS011;56152;49.996;18.980;2023-12-14T09:41:52;109.72;;;36.92;;
43646;SDS011;56152;49.996;18.980;2023-12-14T09:52:06;103.50;;;34.03;;
43646;SDS011;56152;49.996;18.980;2023-12-14T09:57:08;113.40;;;37.38;;
43646;SDS011;56152;49.996;18.980;2023-12-14T10:02:11;102.30;;;38.10;;
43646;SDS011;56152;49.996;18.980;2023-12-14T10:07:14;143.70;;;53.30;;
43646;SDS011;56152;49.996;18.980;2023-12-14T10:12:16;226.55;;;103.45;;
43646;SDS011;56152;49.996;18.980;2023-12-14T10:17:25;262.15;;;126.93;;
43646;SDS011;56152;49.996;18.980;2023-12-14T10:22:32;109.28;;;43.13;;
43646;SDS011;56152;49.996;18.980;2023-12-14T10:27:37;106.60;;;37.13;;
43646;SDS011;56152;49.996;18.980;2023-12-14T10:32:40;101.05;;;45.30;;
43646;SDS011;56152;49.996;18.980;2023-12-14T10:37:43;70.60;;;29.92;;
43646;SDS011;56152;49.996;18.980;2023-12-14T10:42:50;74.68;;;28.35;;
43646;SDS011;56152;49.996;18.980;2023-12-14T10:47:54;76.35;;;26.35;;
43646;SDS011;56152;49.996;18.980;2023-12-14T10:52:59;106.78;;;39.60;;
43646;SDS011;56152;49.996;18.980;2023-12-14T10:58:02;87.60;;;34.83;;
43646;SDS011;56152;49.996;18.980;2023-12-14T11:03:07;93.68;;;37.20;;
43646;SDS011;56152;49.996;18.980;2023-12-14T11:08:12;67.72;;;29.02;;
43646;SDS011;56152;49.996;18.980;2023-12-14T11:13:16;66.47;;;31.55;;
43646;SDS011;56152;49.996;18.980;2023-12-14T11:18:25;72.90;;;30.00;;
43646;SDS011;56152;49.996;18.980;2023-12-14T11:23:31;68.85;;;30.88;;
43646;SDS011;56152;49.996;18.980;2023-12-14T11:28:35;75.60;;;32.95;;
43646;SDS011;56152;49.996;18.980;2023-12-14T11:33:40;78.68;;;32.70;;
43646;SDS011;56152;49.996;18.980;2023-12-14T11:38:44;88.00;;;35.88;;
43646;SDS011;56152;49.996;18.980;2023-12-14T11:43:50;106.38;;;42.70;;
43646;SDS011;56152;49.996;18.980;2023-12-14T11:48:57;84.38;;;33.95;;
43646;SDS011;56152;49.996;18.980;2023-12-14T11:54:03;105.00;;;41.05;;
43646;SDS011;56152;49.996;18.980;2023-12-14T11:59:05;94.57;;;39.83;;
43646;SDS011;56152;49.996;18.980;2023-12-14T12:04:13;73.70;;;31.10;;
43646;SDS011;56152;49.996;18.980;2023-12-14T12:09:31;67.32;;;30.10;;
43646;SDS011;56152;49.996;18.980;2023-12-14T12:14:35;54.30;;;25.35;;
43646;SDS011;56152;49.996;18.980;2023-12-14T12:19:39;76.45;;;34.60;;
43646;SDS011;56152;49.996;18.980;2023-12-14T12:24:42;83.85;;;36.63;;
43646;SDS011;56152;49.996;18.980;2023-12-14T12:29:44;81.45;;;43.40;;
43646;SDS011;56152;49.996;18.980;2023-12-14T12:34:48;109.93;;;56.58;;
43646;SDS011;56152;49.996;18.980;2023-12-14T12:39:51;58.13;;;30.70;;
43646;SDS011;56152;49.996;18.980;2023-12-14T12:44:52;61.15;;;28.63;;
43646;SDS011;56152;49.996;18.980;2023-12-14T12:49:56;51.17;;;26.13;;
43646;SDS011;56152;49.996;18.980;2023-12-14T12:54:58;69.10;;;33.30;;
43646;SDS011;56152;49.996;18.980;2023-12-14T13:00:00;85.72;;;36.30;;
43646;SDS011;56152;49.996;18.980;2023-12-14T13:05:06;140.25;;;64.72;;
43646;SDS011;56152;49.996;18.980;2023-12-14T13:10:09;103.57;;;44.20;;
43646;SDS011;56152;49.996;18.980;2023-12-14T13:15:13;126.38;;;45.72;;
43646;SDS011;56152;49.996;18.980;2023-12-14T13:20:17;131.27;;;48.97;;
43646;SDS011;56152;49.996;18.980;2023-12-14T13:25:19;176.85;;;67.97;;
43646;SDS011;56152;49.996;18.980;2023-12-14T13:30:22;176.10;;;64.95;;
43646;SDS011;56152;49.996;18.980;2023-12-14T13:35:30;137.73;;;44.85;;
43646;SDS011;56152;49.996;18.980;2023-12-14T13:40:33;177.40;;;60.22;;
43646;SDS011;56152;49.996;18.980;2023-12-14T13:45:35;131.02;;;49.13;;
43646;SDS011;56152;49.996;18.980;2023-12-14T13:50:39;190.35;;;72.35;;
43646;SDS011;56152;49.996;18.980;2023-12-14T13:55:41;144.77;;;56.40;;
43646;SDS011;56152;49.996;18.980;2023-12-14T14:00:43;151.13;;;54.05;;
43646;SDS011;56152;49.996;18.980;2023-12-14T14:05:47;162.45;;;54.78;;
43646;SDS011;56152;49.996;18.980;2023-12-14T14:10:49;157.75;;;57.60;;
43646;SDS011;56152;49.996;18.980;2023-12-14T14:15:51;132.20;;;47.93;;
43646;SDS011;56152;49.996;18.980;2023-12-14T14:20:55;111.10;;;41.15;;
43646;SDS011;56152;49.996;18.980;2023-12-14T14:25:58;103.35;;;40.83;;
43646;SDS011;56152;49.996;18.980;2023-12-14T14:31:00;120.80;;;47.58;;
43646;SDS011;56152;49.996;18.980;2023-12-14T14:36:05;137.80;;;56.30;;
43646;SDS011;56152;49.996;18.980;2023-12-14T14:41:08;145.60;;;59.13;;
43646;SDS011;56152;49.996;18.980;2023-12-14T14:46:12;115.25;;;46.60;;
43646;SDS011;56152;49.996;18.980;2023-12-14T14:51:15;108.18;;;46.85;;
43646;SDS011;56152;49.996;18.980;2023-12-14T14:56:17;95.32;;;40.45;;
43646;SDS011;56152;49.996;18.980;2023-12-14T15:01:19;98.15;;;43.72;;
43646;SDS011;56152;49.996;18.980;2023-12-14T15:06:22;185.90;;;74.73;;
43646;SDS011;56152;49.996;18.980;2023-12-14T15:11:24;125.60;;;46.83;;
43646;SDS011;56152;49.996;18.980;2023-12-14T15:16:28;185.70;;;57.33;;
43646;SDS011;56152;49.996;18.980;2023-12-14T15:21:34;154.88;;;51.42;;
43646;SDS011;56152;49.996;18.980;2023-12-14T15:26:36;384.83;;;127.27;;
43646;SDS011;56152;49.996;18.980;2023-12-14T15:31:38;350.08;;;114.93;;
43646;SDS011;56152;49.996;18.980;2023-12-14T15:36:42;233.02;;;88.28;;
43646;SDS011;56152;49.996;18.980;2023-12-14T15:41:44;179.40;;;66.28;;
43646;SDS011;56152;49.996;18.980;2023-12-14T15:46:46;153.90;;;66.45;;
43646;SDS011;56152;49.996;18.980;2023-12-14T15:51:50;138.35;;;56.45;;
43646;SDS011;56152;49.996;18.980;2023-12-14T15:56:52;126.53;;;49.70;;
43646;SDS011;56152;49.996;18.980;2023-12-14T16:01:55;137.50;;;62.90;;
43646;SDS011;56152;49.996;18.980;2023-12-14T16:06:58;125.18;;;49.88;;
43646;SDS011;56152;49.996;18.980;2023-12-14T16:12:00;105.40;;;43.58;;
43646;SDS011;56152;49.996;18.980;2023-12-14T16:17:04;100.45;;;45.22;;
43646;SDS011;56152;49.996;18.980;2023-12-14T16:22:08;130.68;;;47.85;;
43646;SDS011;56152;49.996;18.980;2023-12-14T16:27:10;154.10;;;64.50;;
43646;SDS011;56152;49.996;18.980;2023-12-14T16:32:13;140.23;;;53.92;;
43646;SDS011;56152;49.996;18.980;2023-12-14T16:37:17;177.57;;;66.90;;
43646;SDS011;56152;49.996;18.980;2023-12-14T16:42:19;224.35;;;97.45;;
43646;SDS011;56152;49.996;18.980;2023-12-14T16:47:21;158.40;;;61.95;;
43646;SDS011;56152;49.996;18.980;2023-12-14T16:52:24;170.10;;;67.85;;
43646;SDS011;56152;49.996;18.980;2023-12-14T16:57:26;136.60;;;62.17;;
43646;SDS011;56152;49.996;18.980;2023-12-14T17:02:33;145.97;;;64.20;;
43646;SDS011;56152;49.996;18.980;2023-12-14T17:07:37;154.00;;;60.38;;
43646;SDS011;56152;49.996;18.980;2023-12-14T17:12:39;135.90;;;52.80;;
43646;SDS011;56152;49.996;18.980;2023-12-14T17:17:41;107.63;;;44.70;;
43646;SDS011;56152;49.996;18.980;2023-12-14T17:22:45;133.93;;;55.47;;
43646;SDS011;56152;49.996;18.980;2023-12-14T17:27:48;127.75;;;50.17;;
43646;SDS011;56152;49.996;18.980;2023-12-14T17:32:50;134.50;;;51.83;;
43646;SDS011;56152;49.996;18.980;2023-12-14T17:37:56;136.55;;;53.25;;
43646;SDS011;56152;49.996;18.980;2023-12-14T17:42:57;156.73;;;64.37;;
43646;SDS011;56152;49.996;18.980;2023-12-14T17:48:00;156.70;;;62.78;;
43646;SDS011;56152;49.996;18.980;2023-12-14T17:53:07;152.43;;;63.80;;
43646;SDS011;56152;49.996;18.980;2023-12-14T17:58:09;133.13;;;53.20;;
43646;SDS011;56152;49.996;18.980;2023-12-14T18:03:14;107.07;;;43.10;;
43646;SDS011;56152;49.996;18.980;2023-12-14T18:08:39;85.78;;;37.45;;
43646;SDS011;56152;49.996;18.980;2023-12-14T18:13:43;89.90;;;38.13;;
43646;SDS011;56152;49.996;18.980;2023-12-14T18:18:46;127.72;;;55.42;;
43646;SDS011;56152;49.996;18.980;2023-12-14T18:23:59;126.30;;;55.70;;
43646;SDS011;56152;49.996;18.980;2023-12-14T18:29:09;120.53;;;51.08;;
43646;SDS011;56152;49.996;18.980;2023-12-14T18:34:19;103.40;;;46.33;;
43646;SDS011;56152;49.996;18.980;2023-12-14T18:39:25;129.85;;;54.08;;
43646;SDS011;56152;49.996;18.980;2023-12-14T18:44:35;113.15;;;49.10;;
43646;SDS011;56152;49.996;18.980;2023-12-14T18:49:37;110.93;;;45.25;;
43646;SDS011;56152;49.996;18.980;2023-12-14T18:54:45;101.65;;;48.03;;
43646;SDS011;56152;49.996;18.980;2023-12-14T18:59:47;100.88;;;43.42;;
43646;SDS011;56152;49.996;18.980;2023-12-14T19:04:50;97.88;;;44.55;;
43646;SDS011;56152;49.996;18.980;2023-12-14T19:09:55;69.57;;;31.77;;
43646;SDS011;56152;49.996;18.980;2023-12-14T19:14:58;98.75;;;40.67;;
43646;SDS011;56152;49.996;18.980;2023-12-14T19:20:03;87.20;;;36.55;;
43646;SDS011;56152;49.996;18.980;2023-12-14T19:30:24;75.57;;;34.45;;
43646;SDS011;56152;49.996;18.980;2023-12-14T19:35:26;100.90;;;42.97;;
43646;SDS011;56152;49.996;18.980;2023-12-14T19:40:29;63.20;;;27.23;;
43646;SDS011;56152;49.996;18.980;2023-12-14T19:45:31;62.03;;;28.02;;
43646;SDS011;56152;49.996;18.980;2023-12-14T19:50:33;44.97;;;22.92;;
43646;SDS011;56152;49.996;18.980;2023-12-14T19:55:38;57.22;;;25.17;;
43646;SDS011;56152;49.996;18.980;2023-12-14T20:00:40;57.17;;;25.63;;
43646;SDS011;56152;49.996;18.980;2023-12-14T20:05:43;44.83;;;22.75;;
43646;SDS011;56152;49.996;18.980;2023-12-14T20:10:52;43.35;;;20.73;;
43646;SDS011;56152;49.996;18.980;2023-12-14T20:15:54;41.65;;;20.65;;
43646;SDS011;56152;49.996;18.980;2023-12-14T20:20:59;37.33;;;20.02;;
43646;SDS011;56152;49.996;18.980;2023-12-14T20:26:06;31.45;;;16.35;;
43646;SDS011;56152;49.996;18.980;2023-12-14T20:31:09;29.88;;;16.17;;
43646;SDS011;56152;49.996;18.980;2023-12-14T20:36:13;32.85;;;17.58;;
43646;SDS011;56152;49.996;18.980;2023-12-14T20:41:17;28.30;;;14.93;;
43646;SDS011;56152;49.996;18.980;2023-12-14T20:46:42;23.23;;;13.57;;
43646;SDS011;56152;49.996;18.980;2023-12-14T20:52:32;23.60;;;11.77;;
43646;SDS011;56152;49.996;18.980;2023-12-14T20:57:42;16.30;;;9.63;;
43646;SDS011;56152;49.996;18.980;2023-12-14T21:03:04;19.75;;;10.85;;
43646;SDS011;56152;49.996;18.980;2023-12-14T21:08:06;19.75;;;11.73;;
43646;SDS011;56152;49.996;18.980;2023-12-14T21:13:11;23.07;;;13.40;;
43646;SDS011;56152;49.996;18.980;2023-12-14T21:18:16;19.30;;;11.87;;
43646;SDS011;56152;49.996;18.980;2023-12-14T21:23:20;30.70;;;18.13;;
43646;SDS011;56152;49.996;18.980;2023-12-14T21:28:31;25.60;;;16.20;;
43646;SDS011;56152;49.996;18.980;2023-12-14T21:34:28;25.63;;;15.70;;
43646;SDS011;56152;49.996;18.980;2023-12-14T21:39:55;32.40;;;17.75;;
43646;SDS011;56152;49.996;18.980;2023-12-14T21:50:31;26.67;;;16.77;;
43646;SDS011;56152;49.996;18.980;2023-12-14T21:55:38;23.70;;;15.90;;
43646;SDS011;56152;49.996;18.980;2023-12-14T22:00:49;28.67;;;17.65;;
43646;SDS011;56152;49.996;18.980;2023-12-14T22:05:53;45.67;;;24.67;;
43646;SDS011;56152;49.996;18.980;2023-12-14T22:10:55;42.30;;;22.50;;
43646;SDS011;56152;49.996;18.980;2023-12-14T22:15:59;44.85;;;25.08;;
43646;SDS011;56152;49.996;18.980;2023-12-14T22:21:07;32.73;;;20.07;;
43646;SDS011;56152;49.996;18.980;2023-12-14T22:26:10;38.23;;;19.43;;
43646;SDS011;56152;49.996;18.980;2023-12-14T22:31:22;40.93;;;20.37;;
43646;SDS011;56152;49.996;18.980;2023-12-14T22:36:24;43.08;;;21.38;;
43646;SDS011;56152;49.996;18.980;2023-12-14T22:41:26;40.20;;;22.83;;
43646;SDS011;56152;49.996;18.980;2023-12-14T22:46:30;36.10;;;19.90;;
43646;SDS011;56152;49.996;18.980;2023-12-14T22:51:34;39.23;;;22.40;;
43646;SDS011;56152;49.996;18.980;2023-12-14T22:56:36;31.80;;;18.58;;
43646;SDS011;56152;49.996;18.980;2023-12-14T23:01:41;44.05;;;23.20;;
43646;SDS011;56152;49.996;18.980;2023-12-14T23:06:43;37.75;;;19.08;;
43646;SDS011;56152;49.996;18.980;2023-12-14T23:11:45;40.92;;;21.77;;
43646;SDS011;56152;49.996;18.980;2023-12-14T23:16:49;41.07;;;21.63;;
43646;SDS011;56152;49.996;18.980;2023-12-14T23:21:52;35.67;;;19.17;;
43646;SDS011;56152;49.996;18.980;2023-12-14T23:26:54;32.90;;;18.03;;
43646;SDS011;56152;49.996;18.980;2023-12-14T23:31:58;47.20;;;23.17;;
43646;SDS011;56152;49.996;18.980;2023-12-14T23:37:08;40.03;;;21.13;;
43646;SDS011;56152;49.996;18.980;2023-12-14T23:42:10;33.63;;;17.23;;
43646;SDS011;56152;49.996;18.980;2023-12-14T23:52:21;55.77;;;26.87;;
43646;SDS011;56152;49.996;18.980;2023-12-14T23:57:26;40.60;;;19.03;;
